sensor_id;sensor_type;location;lat;lon;timestamp;temperature;humidity
31379;DHT22;61664;48.112;11.662;2023-08-20T00:01:27;26.90;47.80
31379;DHT22;61664;48.112;11.662;2023-08-20T00:03:55;26.90;48.30
31379;DHT22;61664;48.112;11.662;2023-08-20T00:06:23;26.90;47.70
31379;DHT22;61664;48.112;11.662;2023-08-20T00:08:50;26.80;47.70
31379;DHT22;61664;48.112;11.662;2023-08-20T00:11:17;26.80;47.70
31379;DHT22;61664;48.112;11.662;2023-08-20T00:13:44;26.80;47.80
31379;DHT22;61664;48.112;11.662;2023-08-20T00:16:11;26.70;48.30
31379;DHT22;61664;48.112;11.662;2023-08-20T00:18:39;26.70;47.90
31379;DHT22;61664;48.112;11.662;2023-08-20T00:21:08;26.70;48.00
31379;DHT22;61664;48.112;11.662;2023-08-20T00:23:36;26.60;48.20
31379;DHT22;61664;48.112;11.662;2023-08-20T00:26:04;26.50;48.00
31379;DHT22;61664;48.112;11.662;2023-08-20T00:28:31;26.50;48.00
31379;DHT22;61664;48.112;11.662;2023-08-20T00:31:03;26.50;48.10
31379;DHT22;61664;48.112;11.662;2023-08-20T00:33:31;26.40;48.10
31379;DHT22;61664;48.112;11.662;2023-08-20T00:35:58;26.40;48.30
31379;DHT22;61664;48.112;11.662;2023-08-20T00:38:25;26.40;48.30
31379;DHT22;61664;48.112;11.662;2023-08-20T00:40:52;26.30;48.40
31379;DHT22;61664;48.112;11.662;2023-08-20T00:43:19;26.30;48.40
31379;DHT22;61664;48.112;11.662;2023-08-20T00:45:46;26.20;48.50
31379;DHT22;61664;48.112;11.662;2023-08-20T00:48:13;26.20;48.60
31379;DHT22;61664;48.112;11.662;2023-08-20T00:50:41;26.00;48.50
31379;DHT22;61664;48.112;11.662;2023-08-20T00:53:10;26.20;48.80
31379;DHT22;61664;48.112;11.662;2023-08-20T00:55:40;26.20;49.00
31379;DHT22;61664;48.112;11.662;2023-08-20T00:58:10;26.20;48.80
31379;DHT22;61664;48.112;11.662;2023-08-20T01:00:37;26.20;48.80
31379;DHT22;61664;48.112;11.662;2023-08-20T01:03:04;26.20;48.80
31379;DHT22;61664;48.112;11.662;2023-08-20T01:05:37;26.10;48.80
31379;DHT22;61664;48.112;11.662;2023-08-20T01:08:37;26.20;49.00
31379;DHT22;61664;48.112;11.662;2023-08-20T01:11:16;26.20;49.30
31379;DHT22;61664;48.112;11.662;2023-08-20T01:13:45;26.10;49.20
31379;DHT22;61664;48.112;11.662;2023-08-20T01:16:12;26.10;48.90
31379;DHT22;61664;48.112;11.662;2023-08-20T01:18:39;26.00;48.90
31379;DHT22;61664;48.112;11.662;2023-08-20T01:21:29;26.00;49.00
31379;DHT22;61664;48.112;11.662;2023-08-20T01:25:04;26.00;49.50
31379;DHT22;61664;48.112;11.662;2023-08-20T01:30:12;25.90;49.60
31379;DHT22;61664;48.112;11.662;2023-08-20T01:32:40;25.90;49.10
31379;DHT22;61664;48.112;11.662;2023-08-20T01:35:16;25.90;49.30
31379;DHT22;61664;48.112;11.662;2023-08-20T01:37:44;25.90;49.70
31379;DHT22;61664;48.112;11.662;2023-08-20T01:40:11;25.80;49.20
31379;DHT22;61664;48.112;11.662;2023-08-20T01:42:39;25.80;49.30
31379;DHT22;61664;48.112;11.662;2023-08-20T01:45:07;25.80;49.40
31379;DHT22;61664;48.112;11.662;2023-08-20T01:47:34;25.70;49.50
31379;DHT22;61664;48.112;11.662;2023-08-20T01:50:02;25.70;49.50
31379;DHT22;61664;48.112;11.662;2023-08-20T01:52:33;25.60;49.50
31379;DHT22;61664;48.112;11.662;2023-08-20T01:55:00;25.60;49.50
31379;DHT22;61664;48.112;11.662;2023-08-20T01:57:27;25.60;49.50
31379;DHT22;61664;48.112;11.662;2023-08-20T01:59:54;25.60;49.50
31379;DHT22;61664;48.112;11.662;2023-08-20T02:02:21;25.60;49.50
31379;DHT22;61664;48.112;11.662;2023-08-20T02:04:48;25.60;49.60
31379;DHT22;61664;48.112;11.662;2023-08-20T02:07:15;25.60;49.70
31379;DHT22;61664;48.112;11.662;2023-08-20T02:09:44;25.50;49.70
31379;DHT22;61664;48.112;11.662;2023-08-20T02:12:11;25.50;49.80
31379;DHT22;61664;48.112;11.662;2023-08-20T02:14:38;25.50;49.90
31379;DHT22;61664;48.112;11.662;2023-08-20T02:17:05;25.50;50.00
31379;DHT22;61664;48.112;11.662;2023-08-20T02:19:32;25.40;49.90
31379;DHT22;61664;48.112;11.662;2023-08-20T02:21:59;25.40;50.00
31379;DHT22;61664;48.112;11.662;2023-08-20T02:24:26;25.40;50.10
31379;DHT22;61664;48.112;11.662;2023-08-20T02:26:53;25.40;50.20
31379;DHT22;61664;48.112;11.662;2023-08-20T02:29:19;25.40;50.30
31379;DHT22;61664;48.112;11.662;2023-08-20T02:31:46;25.30;50.30
31379;DHT22;61664;48.112;11.662;2023-08-20T02:34:13;25.30;50.20
31379;DHT22;61664;48.112;11.662;2023-08-20T02:36:40;25.30;50.30
31379;DHT22;61664;48.112;11.662;2023-08-20T02:39:07;25.20;50.90
31379;DHT22;61664;48.112;11.662;2023-08-20T02:41:35;25.20;50.50
31379;DHT22;61664;48.112;11.662;2023-08-20T02:44:04;25.20;50.50
31379;DHT22;61664;48.112;11.662;2023-08-20T02:46:31;25.10;50.40
31379;DHT22;61664;48.112;11.662;2023-08-20T02:48:58;25.10;50.50
31379;DHT22;61664;48.112;11.662;2023-08-20T02:51:25;25.00;50.50
31379;DHT22;61664;48.112;11.662;2023-08-20T02:53:52;25.00;50.70
31379;DHT22;61664;48.112;11.662;2023-08-20T02:56:19;24.90;50.60
31379;DHT22;61664;48.112;11.662;2023-08-20T02:58:46;24.90;50.80
31379;DHT22;61664;48.112;11.662;2023-08-20T03:01:25;24.80;50.90
31379;DHT22;61664;48.112;11.662;2023-08-20T03:03:53;24.80;51.30
31379;DHT22;61664;48.112;11.662;2023-08-20T03:06:20;24.80;50.90
31379;DHT22;61664;48.112;11.662;2023-08-20T03:08:47;24.70;51.00
31379;DHT22;61664;48.112;11.662;2023-08-20T03:11:13;24.70;50.90
31379;DHT22;61664;48.112;11.662;2023-08-20T03:13:40;24.70;51.20
31379;DHT22;61664;48.112;11.662;2023-08-20T03:16:07;24.60;51.20
31379;DHT22;61664;48.112;11.662;2023-08-20T03:18:35;24.60;51.10
31379;DHT22;61664;48.112;11.662;2023-08-20T03:21:02;24.60;51.20
31379;DHT22;61664;48.112;11.662;2023-08-20T03:23:32;24.60;51.10
31379;DHT22;61664;48.112;11.662;2023-08-20T03:25:59;24.60;51.40
31379;DHT22;61664;48.112;11.662;2023-08-20T03:28:26;24.50;51.10
31379;DHT22;61664;48.112;11.662;2023-08-20T03:30:53;24.50;51.20
31379;DHT22;61664;48.112;11.662;2023-08-20T03:33:20;24.50;51.20
31379;DHT22;61664;48.112;11.662;2023-08-20T03:35:47;24.50;51.30
31379;DHT22;61664;48.112;11.662;2023-08-20T03:38:17;24.50;51.30
31379;DHT22;61664;48.112;11.662;2023-08-20T03:40:44;24.50;51.50
31379;DHT22;61664;48.112;11.662;2023-08-20T03:43:11;24.50;51.40
31379;DHT22;61664;48.112;11.662;2023-08-20T03:45:38;24.50;51.40
31379;DHT22;61664;48.112;11.662;2023-08-20T03:48:05;24.50;51.40
31379;DHT22;61664;48.112;11.662;2023-08-20T03:50:32;24.50;51.50
31379;DHT22;61664;48.112;11.662;2023-08-20T03:52:59;24.50;51.40
31379;DHT22;61664;48.112;11.662;2023-08-20T03:55:27;24.50;51.50
31379;DHT22;61664;48.112;11.662;2023-08-20T03:57:53;24.50;51.60
31379;DHT22;61664;48.112;11.662;2023-08-20T04:00:20;24.50;51.80
31379;DHT22;61664;48.112;11.662;2023-08-20T04:02:47;24.50;51.80
31379;DHT22;61664;48.112;11.662;2023-08-20T04:05:14;24.50;51.90
31379;DHT22;61664;48.112;11.662;2023-08-20T04:07:41;24.50;51.90
31379;DHT22;61664;48.112;11.662;2023-08-20T04:10:08;24.50;51.90
31379;DHT22;61664;48.112;11.662;2023-08-20T04:12:36;24.50;51.90
31379;DHT22;61664;48.112;11.662;2023-08-20T04:15:03;24.50;51.90
31379;DHT22;61664;48.112;11.662;2023-08-20T04:17:30;24.50;51.90
31379;DHT22;61664;48.112;11.662;2023-08-20T04:19:57;24.50;51.90
31379;DHT22;61664;48.112;11.662;2023-08-20T04:22:24;24.50;52.00
31379;DHT22;61664;48.112;11.662;2023-08-20T04:24:51;24.40;52.00
31379;DHT22;61664;48.112;11.662;2023-08-20T04:27:18;24.50;52.20
31379;DHT22;61664;48.112;11.662;2023-08-20T04:29:45;24.40;52.20
31379;DHT22;61664;48.112;11.662;2023-08-20T04:32:12;24.40;52.30
31379;DHT22;61664;48.112;11.662;2023-08-20T04:34:39;24.40;52.30
31379;DHT22;61664;48.112;11.662;2023-08-20T04:37:06;24.40;52.30
31379;DHT22;61664;48.112;11.662;2023-08-20T04:39:32;24.40;52.40
31379;DHT22;61664;48.112;11.662;2023-08-20T04:41:59;24.40;52.50
31379;DHT22;61664;48.112;11.662;2023-08-20T04:44:27;24.40;52.70
31379;DHT22;61664;48.112;11.662;2023-08-20T04:46:54;24.40;52.90
31379;DHT22;61664;48.112;11.662;2023-08-20T04:49:21;24.40;53.00
31379;DHT22;61664;48.112;11.662;2023-08-20T04:51:47;24.40;53.20
31379;DHT22;61664;48.112;11.662;2023-08-20T04:54:14;24.40;53.20
31379;DHT22;61664;48.112;11.662;2023-08-20T04:56:41;24.40;53.30
31379;DHT22;61664;48.112;11.662;2023-08-20T04:59:08;24.30;53.20
31379;DHT22;61664;48.112;11.662;2023-08-20T05:01:35;24.40;53.30
31379;DHT22;61664;48.112;11.662;2023-08-20T05:04:02;24.30;53.40
31379;DHT22;61664;48.112;11.662;2023-08-20T05:06:29;24.30;53.40
31379;DHT22;61664;48.112;11.662;2023-08-20T05:08:56;24.30;53.30
31379;DHT22;61664;48.112;11.662;2023-08-20T05:11:25;24.30;53.50
31379;DHT22;61664;48.112;11.662;2023-08-20T05:13:55;24.30;53.50
31379;DHT22;61664;48.112;11.662;2023-08-20T05:16:22;24.30;53.90
31379;DHT22;61664;48.112;11.662;2023-08-20T05:18:49;24.20;53.70
31379;DHT22;61664;48.112;11.662;2023-08-20T05:21:15;24.20;53.70
31379;DHT22;61664;48.112;11.662;2023-08-20T05:23:42;24.20;53.60
31379;DHT22;61664;48.112;11.662;2023-08-20T05:26:10;24.20;53.50
31379;DHT22;61664;48.112;11.662;2023-08-20T05:28:37;24.30;53.60
31379;DHT22;61664;48.112;11.662;2023-08-20T05:31:04;24.20;53.50
31379;DHT22;61664;48.112;11.662;2023-08-20T05:33:30;24.20;53.50
31379;DHT22;61664;48.112;11.662;2023-08-20T05:35:59;24.20;53.50
31379;DHT22;61664;48.112;11.662;2023-08-20T05:38:26;24.20;53.60
31379;DHT22;61664;48.112;11.662;2023-08-20T05:40:53;24.20;53.50
31379;DHT22;61664;48.112;11.662;2023-08-20T05:43:19;24.20;53.50
31379;DHT22;61664;48.112;11.662;2023-08-20T05:45:46;24.20;53.60
31379;DHT22;61664;48.112;11.662;2023-08-20T05:48:13;24.10;53.80
31379;DHT22;61664;48.112;11.662;2023-08-20T05:50:40;24.10;53.90
31379;DHT22;61664;48.112;11.662;2023-08-20T05:53:07;24.10;54.00
31379;DHT22;61664;48.112;11.662;2023-08-20T05:55:34;24.10;54.00
31379;DHT22;61664;48.112;11.662;2023-08-20T05:58:01;24.20;54.10
31379;DHT22;61664;48.112;11.662;2023-08-20T06:00:28;24.20;54.10
31379;DHT22;61664;48.112;11.662;2023-08-20T06:02:55;24.20;54.20
31379;DHT22;61664;48.112;11.662;2023-08-20T06:05:22;24.20;54.20
31379;DHT22;61664;48.112;11.662;2023-08-20T06:07:49;24.30;54.40
31379;DHT22;61664;48.112;11.662;2023-08-20T06:10:16;24.30;54.40
31379;DHT22;61664;48.112;11.662;2023-08-20T06:12:43;24.40;54.80
31379;DHT22;61664;48.112;11.662;2023-08-20T06:15:10;24.40;54.40
31379;DHT22;61664;48.112;11.662;2023-08-20T06:17:37;24.50;54.30
31379;DHT22;61664;48.112;11.662;2023-08-20T06:20:05;24.60;54.20
31379;DHT22;61664;48.112;11.662;2023-08-20T06:22:34;24.70;54.10
31379;DHT22;61664;48.112;11.662;2023-08-20T06:25:01;24.70;54.00
31379;DHT22;61664;48.112;11.662;2023-08-20T06:27:29;24.80;54.10
31379;DHT22;61664;48.112;11.662;2023-08-20T06:29:56;24.80;54.00
31379;DHT22;61664;48.112;11.662;2023-08-20T06:32:24;24.90;53.90
31379;DHT22;61664;48.112;11.662;2023-08-20T06:34:51;25.00;54.00
31379;DHT22;61664;48.112;11.662;2023-08-20T06:37:17;25.00;53.60
31379;DHT22;61664;48.112;11.662;2023-08-20T06:39:44;25.10;53.60
31379;DHT22;61664;48.112;11.662;2023-08-20T06:42:11;25.20;53.60
31379;DHT22;61664;48.112;11.662;2023-08-20T06:44:38;25.30;53.60
31379;DHT22;61664;48.112;11.662;2023-08-20T06:47:05;25.40;53.50
31379;DHT22;61664;48.112;11.662;2023-08-20T06:49:32;25.60;53.50
31379;DHT22;61664;48.112;11.662;2023-08-20T06:51:59;25.60;53.10
31379;DHT22;61664;48.112;11.662;2023-08-20T06:54:26;25.70;52.90
31379;DHT22;61664;48.112;11.662;2023-08-20T06:56:53;25.80;52.60
31379;DHT22;61664;48.112;11.662;2023-08-20T06:59:20;25.90;52.50
31379;DHT22;61664;48.112;11.662;2023-08-20T07:01:46;25.90;52.40
31379;DHT22;61664;48.112;11.662;2023-08-20T07:04:13;26.00;52.50
31379;DHT22;61664;48.112;11.662;2023-08-20T07:06:40;26.10;52.20
31379;DHT22;61664;48.112;11.662;2023-08-20T07:09:08;26.10;52.20
31379;DHT22;61664;48.112;11.662;2023-08-20T07:11:35;26.30;52.00
31379;DHT22;61664;48.112;11.662;2023-08-20T07:14:02;26.30;51.90
31379;DHT22;61664;48.112;11.662;2023-08-20T07:16:31;26.40;51.80
31379;DHT22;61664;48.112;11.662;2023-08-20T07:18:58;26.60;52.00
31379;DHT22;61664;48.112;11.662;2023-08-20T07:21:25;26.60;52.20
31379;DHT22;61664;48.112;11.662;2023-08-20T07:23:52;26.80;51.10
31379;DHT22;61664;48.112;11.662;2023-08-20T07:26:19;26.80;51.50
31379;DHT22;61664;48.112;11.662;2023-08-20T07:28:46;27.00;50.80
31379;DHT22;61664;48.112;11.662;2023-08-20T07:31:27;27.00;50.30
31379;DHT22;61664;48.112;11.662;2023-08-20T07:33:56;27.20;50.50
31379;DHT22;61664;48.112;11.662;2023-08-20T07:36:30;27.30;50.60
31379;DHT22;61664;48.112;11.662;2023-08-20T07:38:59;27.40;50.70
31379;DHT22;61664;48.112;11.662;2023-08-20T07:41:28;27.50;50.60
31379;DHT22;61664;48.112;11.662;2023-08-20T07:43:55;27.70;51.00
31379;DHT22;61664;48.112;11.662;2023-08-20T07:46:22;27.80;50.30
31379;DHT22;61664;48.112;11.662;2023-08-20T07:48:49;27.90;50.40
31379;DHT22;61664;48.112;11.662;2023-08-20T07:51:16;28.00;50.00
31379;DHT22;61664;48.112;11.662;2023-08-20T07:53:43;28.10;50.00
31379;DHT22;61664;48.112;11.662;2023-08-20T07:56:10;28.20;49.60
31379;DHT22;61664;48.112;11.662;2023-08-20T07:58:37;28.30;48.80
31379;DHT22;61664;48.112;11.662;2023-08-20T08:01:04;28.50;48.60
31379;DHT22;61664;48.112;11.662;2023-08-20T08:03:31;28.60;48.10
31379;DHT22;61664;48.112;11.662;2023-08-20T08:05:58;28.70;47.70
31379;DHT22;61664;48.112;11.662;2023-08-20T08:08:25;28.80;47.50
31379;DHT22;61664;48.112;11.662;2023-08-20T08:10:52;29.00;47.20
31379;DHT22;61664;48.112;11.662;2023-08-20T08:13:21;29.10;46.90
31379;DHT22;61664;48.112;11.662;2023-08-20T08:15:49;29.20;47.10
31379;DHT22;61664;48.112;11.662;2023-08-20T08:18:17;29.40;48.30
31379;DHT22;61664;48.112;11.662;2023-08-20T08:20:45;29.50;47.10
31379;DHT22;61664;48.112;11.662;2023-08-20T08:23:11;29.70;47.10
31379;DHT22;61664;48.112;11.662;2023-08-20T08:25:39;29.90;47.80
31379;DHT22;61664;48.112;11.662;2023-08-20T08:28:06;30.20;46.90
31379;DHT22;61664;48.112;11.662;2023-08-20T08:30:34;30.60;46.80
31379;DHT22;61664;48.112;11.662;2023-08-20T08:33:01;30.90;47.00
31379;DHT22;61664;48.112;11.662;2023-08-20T08:35:28;31.30;47.10
31379;DHT22;61664;48.112;11.662;2023-08-20T08:37:55;31.80;47.00
31379;DHT22;61664;48.112;11.662;2023-08-20T08:40:28;32.30;46.60
31379;DHT22;61664;48.112;11.662;2023-08-20T08:42:56;32.90;45.20
31379;DHT22;61664;48.112;11.662;2023-08-20T08:45:23;33.40;46.00
31379;DHT22;61664;48.112;11.662;2023-08-20T08:47:51;33.90;45.00
31379;DHT22;61664;48.112;11.662;2023-08-20T08:50:21;34.40;44.20
31379;DHT22;61664;48.112;11.662;2023-08-20T08:52:51;35.00;43.80
31379;DHT22;61664;48.112;11.662;2023-08-20T08:55:21;35.50;43.00
31379;DHT22;61664;48.112;11.662;2023-08-20T08:57:48;35.90;42.90
31379;DHT22;61664;48.112;11.662;2023-08-20T09:00:15;36.40;42.40
31379;DHT22;61664;48.112;11.662;2023-08-20T09:02:42;36.80;41.60
31379;DHT22;61664;48.112;11.662;2023-08-20T09:05:09;37.20;40.80
31379;DHT22;61664;48.112;11.662;2023-08-20T09:07:42;37.60;40.20
31379;DHT22;61664;48.112;11.662;2023-08-20T09:10:11;38.00;38.40
31379;DHT22;61664;48.112;11.662;2023-08-20T09:12:38;38.30;38.20
31379;DHT22;61664;48.112;11.662;2023-08-20T09:15:11;38.60;37.60
31379;DHT22;61664;48.112;11.662;2023-08-20T09:17:41;38.70;36.10
31379;DHT22;61664;48.112;11.662;2023-08-20T09:20:08;39.00;36.80
31379;DHT22;61664;48.112;11.662;2023-08-20T09:22:36;39.20;36.70
31379;DHT22;61664;48.112;11.662;2023-08-20T09:25:04;39.40;35.70
31379;DHT22;61664;48.112;11.662;2023-08-20T09:27:39;39.50;34.90
31379;DHT22;61664;48.112;11.662;2023-08-20T09:30:09;39.60;33.90
31379;DHT22;61664;48.112;11.662;2023-08-20T09:32:44;39.70;34.80
31379;DHT22;61664;48.112;11.662;2023-08-20T09:35:18;39.70;34.00
31379;DHT22;61664;48.112;11.662;2023-08-20T09:37:45;39.80;33.20
31379;DHT22;61664;48.112;11.662;2023-08-20T09:40:12;39.80;33.40
31379;DHT22;61664;48.112;11.662;2023-08-20T09:42:39;39.90;33.70
31379;DHT22;61664;48.112;11.662;2023-08-20T09:45:08;40.00;33.40
31379;DHT22;61664;48.112;11.662;2023-08-20T09:47:36;40.00;33.30
31379;DHT22;61664;48.112;11.662;2023-08-20T09:50:09;40.10;33.30
31379;DHT22;61664;48.112;11.662;2023-08-20T09:52:47;40.30;33.30
31379;DHT22;61664;48.112;11.662;2023-08-20T09:55:33;40.40;32.10
31379;DHT22;61664;48.112;11.662;2023-08-20T09:58:03;40.50;32.50
31379;DHT22;61664;48.112;11.662;2023-08-20T10:00:31;40.60;32.30
31379;DHT22;61664;48.112;11.662;2023-08-20T10:02:59;40.70;32.50
31379;DHT22;61664;48.112;11.662;2023-08-20T10:05:26;40.90;32.50
31379;DHT22;61664;48.112;11.662;2023-08-20T10:07:55;40.90;32.20
31379;DHT22;61664;48.112;11.662;2023-08-20T10:10:24;41.10;31.80
31379;DHT22;61664;48.112;11.662;2023-08-20T10:12:52;41.30;31.60
31379;DHT22;61664;48.112;11.662;2023-08-20T10:15:20;41.40;31.40
31379;DHT22;61664;48.112;11.662;2023-08-20T10:17:48;41.50;31.10
31379;DHT22;61664;48.112;11.662;2023-08-20T10:20:18;41.60;31.00
31379;DHT22;61664;48.112;11.662;2023-08-20T10:22:46;41.70;30.50
31379;DHT22;61664;48.112;11.662;2023-08-20T10:25:23;41.80;30.60
31379;DHT22;61664;48.112;11.662;2023-08-20T10:27:53;41.80;30.00
31379;DHT22;61664;48.112;11.662;2023-08-20T10:30:37;41.90;30.20
31379;DHT22;61664;48.112;11.662;2023-08-20T10:33:04;41.90;30.00
31379;DHT22;61664;48.112;11.662;2023-08-20T10:38:07;41.80;29.40
31379;DHT22;61664;48.112;11.662;2023-08-20T10:40:56;41.70;29.70
31379;DHT22;61664;48.112;11.662;2023-08-20T10:43:39;41.50;29.30
31379;DHT22;61664;48.112;11.662;2023-08-20T10:46:18;41.30;29.50
31379;DHT22;61664;48.112;11.662;2023-08-20T10:48:51;41.00;29.40
31379;DHT22;61664;48.112;11.662;2023-08-20T10:51:31;40.70;29.70
31379;DHT22;61664;48.112;11.662;2023-08-20T10:54:07;40.50;29.80
31379;DHT22;61664;48.112;11.662;2023-08-20T10:56:46;40.20;29.90
31379;DHT22;61664;48.112;11.662;2023-08-20T10:59:28;40.00;29.80
31379;DHT22;61664;48.112;11.662;2023-08-20T11:02:01;39.80;30.00
31379;DHT22;61664;48.112;11.662;2023-08-20T11:04:31;39.60;30.10
31379;DHT22;61664;48.112;11.662;2023-08-20T11:07:01;39.50;30.30
31379;DHT22;61664;48.112;11.662;2023-08-20T11:09:30;39.40;30.50
31379;DHT22;61664;48.112;11.662;2023-08-20T11:11:58;39.30;30.50
31379;DHT22;61664;48.112;11.662;2023-08-20T11:14:25;39.20;30.30
31379;DHT22;61664;48.112;11.662;2023-08-20T11:16:53;39.10;30.00
31379;DHT22;61664;48.112;11.662;2023-08-20T11:19:21;39.00;30.00
31379;DHT22;61664;48.112;11.662;2023-08-20T11:21:50;38.90;30.20
31379;DHT22;61664;48.112;11.662;2023-08-20T11:24:18;38.70;30.30
31379;DHT22;61664;48.112;11.662;2023-08-20T11:26:47;38.60;30.20
31379;DHT22;61664;48.112;11.662;2023-08-20T11:29:15;38.50;30.40
31379;DHT22;61664;48.112;11.662;2023-08-20T11:31:49;38.30;30.50
31379;DHT22;61664;48.112;11.662;2023-08-20T11:34:18;38.20;30.30
31379;DHT22;61664;48.112;11.662;2023-08-20T11:36:46;38.10;30.20
31379;DHT22;61664;48.112;11.662;2023-08-20T11:39:13;38.00;30.20
31379;DHT22;61664;48.112;11.662;2023-08-20T11:41:40;37.80;30.30
31379;DHT22;61664;48.112;11.662;2023-08-20T11:44:10;37.70;30.60
31379;DHT22;61664;48.112;11.662;2023-08-20T11:46:44;37.50;30.80
31379;DHT22;61664;48.112;11.662;2023-08-20T11:49:12;37.30;30.70
31379;DHT22;61664;48.112;11.662;2023-08-20T11:51:49;37.20;30.70
31379;DHT22;61664;48.112;11.662;2023-08-20T11:54:17;37.00;31.00
31379;DHT22;61664;48.112;11.662;2023-08-20T11:56:47;36.90;31.10
31379;DHT22;61664;48.112;11.662;2023-08-20T11:59:16;36.70;31.20
31379;DHT22;61664;48.112;11.662;2023-08-20T12:02:24;36.60;31.40
31379;DHT22;61664;48.112;11.662;2023-08-20T12:04:38;36.50;31.50
31379;DHT22;61664;48.112;11.662;2023-08-20T12:07:15;36.40;31.30
31379;DHT22;61664;48.112;11.662;2023-08-20T12:09:41;36.20;31.40
31379;DHT22;61664;48.112;11.662;2023-08-20T12:12:09;36.20;31.60
31379;DHT22;61664;48.112;11.662;2023-08-20T12:14:36;36.00;31.80
31379;DHT22;61664;48.112;11.662;2023-08-20T12:17:03;36.00;31.60
31379;DHT22;61664;48.112;11.662;2023-08-20T12:19:31;35.90;31.90
31379;DHT22;61664;48.112;11.662;2023-08-20T12:21:58;35.80;31.90
31379;DHT22;61664;48.112;11.662;2023-08-20T12:24:24;35.70;31.80
31379;DHT22;61664;48.112;11.662;2023-08-20T12:26:53;35.70;31.90
31379;DHT22;61664;48.112;11.662;2023-08-20T12:29:20;35.70;32.00
31379;DHT22;61664;48.112;11.662;2023-08-20T12:31:47;35.60;32.00
31379;DHT22;61664;48.112;11.662;2023-08-20T12:34:14;35.60;31.40
31379;DHT22;61664;48.112;11.662;2023-08-20T12:36:40;35.60;32.00
31379;DHT22;61664;48.112;11.662;2023-08-20T12:39:07;35.60;31.90
31379;DHT22;61664;48.112;11.662;2023-08-20T12:41:34;35.50;32.00
31379;DHT22;61664;48.112;11.662;2023-08-20T12:44:05;35.50;32.10
31379;DHT22;61664;48.112;11.662;2023-08-20T12:46:32;35.50;32.60
31379;DHT22;61664;48.112;11.662;2023-08-20T12:48:59;35.40;32.50
31379;DHT22;61664;48.112;11.662;2023-08-20T12:51:27;35.40;32.20
31379;DHT22;61664;48.112;11.662;2023-08-20T12:53:54;35.40;32.20
31379;DHT22;61664;48.112;11.662;2023-08-20T12:56:21;35.40;32.10
31379;DHT22;61664;48.112;11.662;2023-08-20T12:58:48;35.40;32.10
31379;DHT22;61664;48.112;11.662;2023-08-20T13:01:15;35.40;32.30
31379;DHT22;61664;48.112;11.662;2023-08-20T13:03:42;35.50;32.50
31379;DHT22;61664;48.112;11.662;2023-08-20T13:06:10;35.50;32.80
31379;DHT22;61664;48.112;11.662;2023-08-20T13:08:37;35.60;33.00
31379;DHT22;61664;48.112;11.662;2023-08-20T13:11:06;35.60;32.80
31379;DHT22;61664;48.112;11.662;2023-08-20T13:13:35;35.60;32.50
31379;DHT22;61664;48.112;11.662;2023-08-20T13:16:02;35.60;32.30
31379;DHT22;61664;48.112;11.662;2023-08-20T13:18:30;35.70;32.50
31379;DHT22;61664;48.112;11.662;2023-08-20T13:20:57;35.70;32.50
31379;DHT22;61664;48.112;11.662;2023-08-20T13:23:24;35.70;32.40
31379;DHT22;61664;48.112;11.662;2023-08-20T13:25:51;35.70;32.50
31379;DHT22;61664;48.112;11.662;2023-08-20T13:28:18;35.70;31.90
31379;DHT22;61664;48.112;11.662;2023-08-20T13:30:45;35.80;32.10
31379;DHT22;61664;48.112;11.662;2023-08-20T13:33:15;35.90;32.20
31379;DHT22;61664;48.112;11.662;2023-08-20T13:35:42;35.90;32.30
31379;DHT22;61664;48.112;11.662;2023-08-20T13:38:09;36.10;32.60
31379;DHT22;61664;48.112;11.662;2023-08-20T13:40:36;36.10;32.10
31379;DHT22;61664;48.112;11.662;2023-08-20T13:43:03;36.20;32.00
31379;DHT22;61664;48.112;11.662;2023-08-20T13:45:30;36.30;31.80
31379;DHT22;61664;48.112;11.662;2023-08-20T13:47:58;36.40;31.70
31379;DHT22;61664;48.112;11.662;2023-08-20T13:50:25;36.50;31.60
31379;DHT22;61664;48.112;11.662;2023-08-20T13:52:52;36.60;31.80
31379;DHT22;61664;48.112;11.662;2023-08-20T13:55:19;36.60;31.70
31379;DHT22;61664;48.112;11.662;2023-08-20T13:57:47;36.70;31.50
31379;DHT22;61664;48.112;11.662;2023-08-20T14:00:14;36.90;31.70
31379;DHT22;61664;48.112;11.662;2023-08-20T14:02:42;37.00;31.70
31379;DHT22;61664;48.112;11.662;2023-08-20T14:05:10;37.20;32.10
31379;DHT22;61664;48.112;11.662;2023-08-20T14:07:37;37.50;32.30
31379;DHT22;61664;48.112;11.662;2023-08-20T14:10:05;37.70;32.10
31379;DHT22;61664;48.112;11.662;2023-08-20T14:12:33;38.10;32.10
31379;DHT22;61664;48.112;11.662;2023-08-20T14:15:05;38.60;32.20
31379;DHT22;61664;48.112;11.662;2023-08-20T14:17:32;39.10;32.20
31379;DHT22;61664;48.112;11.662;2023-08-20T14:19:59;39.60;31.90
31379;DHT22;61664;48.112;11.662;2023-08-20T14:22:26;40.30;31.90
31379;DHT22;61664;48.112;11.662;2023-08-20T14:24:53;40.90;31.60
31379;DHT22;61664;48.112;11.662;2023-08-20T14:27:20;41.40;31.10
31379;DHT22;61664;48.112;11.662;2023-08-20T14:29:49;42.00;30.70
31379;DHT22;61664;48.112;11.662;2023-08-20T14:32:16;42.50;30.50
31379;DHT22;61664;48.112;11.662;2023-08-20T14:34:43;43.10;30.30
31379;DHT22;61664;48.112;11.662;2023-08-20T14:37:10;43.60;29.90
31379;DHT22;61664;48.112;11.662;2023-08-20T14:39:39;44.10;29.50
31379;DHT22;61664;48.112;11.662;2023-08-20T14:42:06;44.50;29.30
31379;DHT22;61664;48.112;11.662;2023-08-20T14:44:33;44.90;29.00
31379;DHT22;61664;48.112;11.662;2023-08-20T14:47:00;45.20;28.70
31379;DHT22;61664;48.112;11.662;2023-08-20T14:49:27;45.60;28.60
31379;DHT22;61664;48.112;11.662;2023-08-20T14:51:55;45.90;28.30
31379;DHT22;61664;48.112;11.662;2023-08-20T14:54:43;46.10;28.30
31379;DHT22;61664;48.112;11.662;2023-08-20T14:57:09;46.40;27.90
31379;DHT22;61664;48.112;11.662;2023-08-20T14:59:36;46.60;27.60
31379;DHT22;61664;48.112;11.662;2023-08-20T15:02:03;46.90;27.40
31379;DHT22;61664;48.112;11.662;2023-08-20T15:04:30;47.00;27.20
31379;DHT22;61664;48.112;11.662;2023-08-20T15:06:57;47.20;27.20
31379;DHT22;61664;48.112;11.662;2023-08-20T15:09:24;47.30;27.00
31379;DHT22;61664;48.112;11.662;2023-08-20T15:11:52;47.50;27.00
31379;DHT22;61664;48.112;11.662;2023-08-20T15:14:19;47.70;26.90
31379;DHT22;61664;48.112;11.662;2023-08-20T15:16:46;47.90;26.70
31379;DHT22;61664;48.112;11.662;2023-08-20T15:19:13;48.10;26.60
31379;DHT22;61664;48.112;11.662;2023-08-20T15:21:40;48.30;26.50
31379;DHT22;61664;48.112;11.662;2023-08-20T15:24:07;48.40;26.20
31379;DHT22;61664;48.112;11.662;2023-08-20T15:26:34;48.60;26.40
31379;DHT22;61664;48.112;11.662;2023-08-20T15:29:01;48.60;26.20